sensor_id;sensor_type;location;lat;lon;timestamp;P1;durP1;ratioP1;P2;durP2;ratioP2
66707;SDS011;53622;0.000;0.000;2023-12-20T00:00:17;1.45;;;1.30;;
66707;SDS011;53622;0.000;0.000;2023-12-20T00:02:46;1.33;;;1.23;;
66707;SDS011;53622;0.000;0.000;2023-12-20T00:05:16;2.60;;;1.30;;
66707;SDS011;53622;0.000;0.000;2023-12-20T00:07:45;2.42;;;1.27;;
66707;SDS011;53622;0.000;0.000;2023-12-20T00:10:14;1.10;;;1.10;;
66707;SDS011;53622;0.000;0.000;2023-12-20T00:12:43;1.40;;;1.30;;
66707;SDS011;53622;0.000;0.000;2023-12-20T00:15:12;1.60;;;1.40;;
66707;SDS011;53622;0.000;0.000;2023-12-20T00:17:41;1.25;;;1.15;;
66707;SDS011;53622;0.000;0.000;2023-12-20T00:20:10;1.27;;;1.17;;
66707;SDS011;53622;0.000;0.000;2023-12-20T00:22:40;1.33;;;1.23;;
66707;SDS011;53622;0.000;0.000;2023-12-20T00:25:09;1.30;;;1.20;;
66707;SDS011;53622;0.000;0.000;2023-12-20T00:27:38;1.20;;;1.10;;
66707;SDS011;53622;0.000;0.000;2023-12-20T00:30:07;1.17;;;1.08;;
66707;SDS011;53622;0.000;0.000;2023-12-20T00:32:37;1.30;;;1.20;;
66707;SDS011;53622;0.000;0.000;2023-12-20T00:35:08;1.02;;;1.02;;
66707;SDS011;53622;0.000;0.000;2023-12-20T00:37:37;1.58;;;1.48;;
66707;SDS011;53622;0.000;0.000;2023-12-20T00:40:07;1.40;;;1.30;;
66707;SDS011;53622;0.000;0.000;2023-12-20T00:42:37;1.40;;;1.20;;
66707;SDS011;53622;0.000;0.000;2023-12-20T00:45:06;1.33;;;1.23;;
66707;SDS011;53622;0.000;0.000;2023-12-20T00:47:35;1.50;;;1.40;;
66707;SDS011;53622;0.000;0.000;2023-12-20T00:50:04;1.02;;;1.00;;
66707;SDS011;53622;0.000;0.000;2023-12-20T00:52:33;1.35;;;1.20;;
66707;SDS011;53622;0.000;0.000;2023-12-20T00:55:02;1.58;;;1.48;;
66707;SDS011;53622;0.000;0.000;2023-12-20T00:57:33;1.30;;;1.20;;
66707;SDS011;53622;0.000;0.000;2023-12-20T01:00:02;1.27;;;1.17;;
66707;SDS011;53622;0.000;0.000;2023-12-20T01:02:32;1.30;;;1.20;;
66707;SDS011;53622;0.000;0.000;2023-12-20T01:05:00;1.30;;;1.20;;
66707;SDS011;53622;0.000;0.000;2023-12-20T01:07:29;1.30;;;1.20;;
66707;SDS011;53622;0.000;0.000;2023-12-20T01:09:58;1.20;;;1.10;;
66707;SDS011;53622;0.000;0.000;2023-12-20T01:12:27;1.15;;;1.05;;
66707;SDS011;53622;0.000;0.000;2023-12-20T01:14:57;1.23;;;1.13;;
66707;SDS011;53622;0.000;0.000;2023-12-20T01:17:26;1.10;;;1.00;;
66707;SDS011;53622;0.000;0.000;2023-12-20T01:19:55;1.40;;;1.30;;
66707;SDS011;53622;0.000;0.000;2023-12-20T01:22:25;1.15;;;1.05;;
66707;SDS011;53622;0.000;0.000;2023-12-20T01:24:53;1.33;;;1.23;;
66707;SDS011;53622;0.000;0.000;2023-12-20T01:27:22;1.33;;;1.23;;
66707;SDS011;53622;0.000;0.000;2023-12-20T01:29:51;1.38;;;1.27;;
66707;SDS011;53622;0.000;0.000;2023-12-20T01:32:21;1.40;;;1.30;;
66707;SDS011;53622;0.000;0.000;2023-12-20T01:34:50;1.52;;;1.40;;
66707;SDS011;53622;0.000;0.000;2023-12-20T01:37:19;0.95;;;0.90;;
66707;SDS011;53622;0.000;0.000;2023-12-20T01:39:50;1.15;;;1.15;;
66707;SDS011;53622;0.000;0.000;2023-12-20T01:42:19;1.92;;;1.48;;
66707;SDS011;53622;0.000;0.000;2023-12-20T01:44:49;1.52;;;1.42;;
66707;SDS011;53622;0.000;0.000;2023-12-20T01:47:17;1.40;;;1.30;;
66707;SDS011;53622;0.000;0.000;2023-12-20T01:49:47;1.40;;;1.30;;
66707;SDS011;53622;0.000;0.000;2023-12-20T01:52:17;1.20;;;1.10;;
66707;SDS011;53622;0.000;0.000;2023-12-20T01:54:47;1.17;;;1.08;;
66707;SDS011;53622;0.000;0.000;2023-12-20T01:57:16;1.25;;;1.15;;
66707;SDS011;53622;0.000;0.000;2023-12-20T01:59:46;1.20;;;1.10;;
66707;SDS011;53622;0.000;0.000;2023-12-20T02:02:15;2.13;;;1.50;;
66707;SDS011;53622;0.000;0.000;2023-12-20T02:04:43;1.25;;;1.15;;
66707;SDS011;53622;0.000;0.000;2023-12-20T02:07:14;1.55;;;1.15;;
66707;SDS011;53622;0.000;0.000;2023-12-20T02:09:43;1.70;;;1.20;;
66707;SDS011;53622;0.000;0.000;2023-12-20T02:12:12;1.08;;;0.98;;
66707;SDS011;53622;0.000;0.000;2023-12-20T02:14:39;1.60;;;1.50;;
66707;SDS011;53622;0.000;0.000;2023-12-20T02:17:08;1.50;;;1.40;;
66707;SDS011;53622;0.000;0.000;2023-12-20T02:19:37;1.27;;;1.17;;
66707;SDS011;53622;0.000;0.000;2023-12-20T02:22:08;1.50;;;1.40;;
66707;SDS011;53622;0.000;0.000;2023-12-20T02:24:37;1.13;;;1.02;;
66707;SDS011;53622;0.000;0.000;2023-12-20T02:27:06;1.40;;;1.30;;
66707;SDS011;53622;0.000;0.000;2023-12-20T02:29:35;1.25;;;1.17;;
66707;SDS011;53622;0.000;0.000;2023-12-20T02:32:04;1.60;;;1.40;;
66707;SDS011;53622;0.000;0.000;2023-12-20T02:34:33;1.50;;;1.40;;
66707;SDS011;53622;0.000;0.000;2023-12-20T02:37:02;3.38;;;1.33;;
66707;SDS011;53622;0.000;0.000;2023-12-20T02:39:33;1.45;;;1.20;;
66707;SDS011;53622;0.000;0.000;2023-12-20T02:42:02;1.20;;;1.10;;
66707;SDS011;53622;0.000;0.000;2023-12-20T02:44:31;1.40;;;1.30;;
66707;SDS011;53622;0.000;0.000;2023-12-20T02:46:59;1.45;;;1.35;;
66707;SDS011;53622;0.000;0.000;2023-12-20T02:49:28;1.10;;;0.90;;
66707;SDS011;53622;0.000;0.000;2023-12-20T02:51:57;1.55;;;1.45;;
66707;SDS011;53622;0.000;0.000;2023-12-20T02:54:26;1.35;;;1.25;;
66707;SDS011;53622;0.000;0.000;2023-12-20T02:56:56;1.50;;;1.40;;
66707;SDS011;53622;0.000;0.000;2023-12-20T02:59:24;1.35;;;1.25;;
66707;SDS011;53622;0.000;0.000;2023-12-20T03:01:53;1.20;;;1.10;;
66707;SDS011;53622;0.000;0.000;2023-12-20T03:04:22;1.98;;;1.77;;
66707;SDS011;53622;0.000;0.000;2023-12-20T03:06:51;1.42;;;1.33;;
66707;SDS011;53622;0.000;0.000;2023-12-20T03:09:19;1.42;;;1.33;;
66707;SDS011;53622;0.000;0.000;2023-12-20T03:11:48;1.40;;;1.30;;
66707;SDS011;53622;0.000;0.000;2023-12-20T03:14:18;1.50;;;1.40;;
66707;SDS011;53622;0.000;0.000;2023-12-20T03:16:47;1.42;;;1.33;;
66707;SDS011;53622;0.000;0.000;2023-12-20T03:19:17;1.90;;;1.48;;
66707;SDS011;53622;0.000;0.000;2023-12-20T03:21:47;1.52;;;1.38;;
66707;SDS011;53622;0.000;0.000;2023-12-20T03:24:15;1.33;;;1.23;;
66707;SDS011;53622;0.000;0.000;2023-12-20T03:26:44;1.48;;;1.38;;
66707;SDS011;53622;0.000;0.000;2023-12-20T03:29:13;1.58;;;1.48;;
66707;SDS011;53622;0.000;0.000;2023-12-20T03:31:43;1.73;;;1.50;;
66707;SDS011;53622;0.000;0.000;2023-12-20T03:34:12;1.70;;;1.60;;
66707;SDS011;53622;0.000;0.000;2023-12-20T03:36:41;1.50;;;1.38;;
66707;SDS011;53622;0.000;0.000;2023-12-20T03:39:10;1.92;;;1.58;;
66707;SDS011;53622;0.000;0.000;2023-12-20T03:41:38;1.48;;;1.38;;
66707;SDS011;53622;0.000;0.000;2023-12-20T03:44:07;1.50;;;1.40;;
66707;SDS011;53622;0.000;0.000;2023-12-20T03:46:36;1.48;;;1.38;;
66707;SDS011;53622;0.000;0.000;2023-12-20T03:49:06;1.70;;;1.58;;
66707;SDS011;53622;0.000;0.000;2023-12-20T03:51:34;1.67;;;1.58;;
66707;SDS011;53622;0.000;0.000;2023-12-20T03:54:03;3.25;;;1.73;;
66707;SDS011;53622;0.000;0.000;2023-12-20T03:56:32;2.08;;;1.58;;
66707;SDS011;53622;0.000;0.000;2023-12-20T03:59:00;1.58;;;1.48;;
66707;SDS011;53622;0.000;0.000;2023-12-20T04:01:29;1.42;;;1.33;;
66707;SDS011;53622;0.000;0.000;2023-12-20T04:03:58;2.78;;;1.70;;
66707;SDS011;53622;0.000;0.000;2023-12-20T04:06:28;1.45;;;1.35;;
66707;SDS011;53622;0.000;0.000;2023-12-20T04:08:57;1.85;;;1.70;;
66707;SDS011;53622;0.000;0.000;2023-12-20T04:11:26;1.60;;;1.50;;
66707;SDS011;53622;0.000;0.000;2023-12-20T04:13:54;2.00;;;1.80;;
66707;SDS011;53622;0.000;0.000;2023-12-20T04:16:23;1.95;;;1.73;;
66707;SDS011;53622;0.000;0.000;2023-12-20T04:18:52;1.63;;;1.50;;
66707;SDS011;53622;0.000;0.000;2023-12-20T04:21:21;2.00;;;1.88;;
66707;SDS011;53622;0.000;0.000;2023-12-20T04:23:51;1.65;;;1.50;;
66707;SDS011;53622;0.000;0.000;2023-12-20T04:26:19;2.15;;;1.80;;
66707;SDS011;53622;0.000;0.000;2023-12-20T04:28:48;1.45;;;1.35;;
66707;SDS011;53622;0.000;0.000;2023-12-20T04:31:21;2.15;;;1.95;;
66707;SDS011;53622;0.000;0.000;2023-12-20T04:33:50;1.60;;;1.40;;
66707;SDS011;53622;0.000;0.000;2023-12-20T04:36:18;1.80;;;1.50;;
66707;SDS011;53622;0.000;0.000;2023-12-20T04:38:47;1.52;;;1.42;;
66707;SDS011;53622;0.000;0.000;2023-12-20T04:41:18;2.22;;;2.03;;
66707;SDS011;53622;0.000;0.000;2023-12-20T04:43:47;2.03;;;1.83;;
66707;SDS011;53622;0.000;0.000;2023-12-20T04:46:15;1.52;;;1.42;;
66707;SDS011;53622;0.000;0.000;2023-12-20T04:48:44;1.65;;;1.55;;
66707;SDS011;53622;0.000;0.000;2023-12-20T04:51:13;1.90;;;1.63;;
66707;SDS011;53622;0.000;0.000;2023-12-20T04:53:41;1.70;;;1.60;;
66707;SDS011;53622;0.000;0.000;2023-12-20T04:56:10;2.20;;;2.00;;
66707;SDS011;53622;0.000;0.000;2023-12-20T04:58:40;2.20;;;2.00;;
66707;SDS011;53622;0.000;0.000;2023-12-20T05:01:10;1.77;;;1.67;;
66707;SDS011;53622;0.000;0.000;2023-12-20T05:03:39;2.13;;;1.65;;
66707;SDS011;53622;0.000;0.000;2023-12-20T05:06:08;2.08;;;1.88;;
66707;SDS011;53622;0.000;0.000;2023-12-20T05:08:37;2.17;;;1.98;;
66707;SDS011;53622;0.000;0.000;2023-12-20T05:11:06;2.08;;;1.88;;
66707;SDS011;53622;0.000;0.000;2023-12-20T05:13:34;1.83;;;1.70;;
66707;SDS011;53622;0.000;0.000;2023-12-20T05:16:14;1.70;;;1.60;;
66707;SDS011;53622;0.000;0.000;2023-12-20T05:18:46;1.88;;;1.75;;
66707;SDS011;53622;0.000;0.000;2023-12-20T05:21:16;2.05;;;1.90;;
66707;SDS011;53622;0.000;0.000;2023-12-20T05:23:45;1.83;;;1.60;;
66707;SDS011;53622;0.000;0.000;2023-12-20T05:26:15;2.30;;;2.10;;
66707;SDS011;53622;0.000;0.000;2023-12-20T05:28:44;2.08;;;1.67;;
66707;SDS011;53622;0.000;0.000;2023-12-20T05:31:14;2.00;;;1.90;;
66707;SDS011;53622;0.000;0.000;2023-12-20T05:33:43;2.08;;;1.98;;
66707;SDS011;53622;0.000;0.000;2023-12-20T05:36:12;1.75;;;1.65;;
66707;SDS011;53622;0.000;0.000;2023-12-20T05:38:42;1.88;;;1.70;;
66707;SDS011;53622;0.000;0.000;2023-12-20T05:41:10;2.10;;;1.90;;
66707;SDS011;53622;0.000;0.000;2023-12-20T05:43:40;2.20;;;2.00;;
66707;SDS011;53622;0.000;0.000;2023-12-20T05:46:09;1.70;;;1.60;;
66707;SDS011;53622;0.000;0.000;2023-12-20T05:48:40;2.00;;;1.90;;
66707;SDS011;53622;0.000;0.000;2023-12-20T05:51:11;2.30;;;2.10;;
66707;SDS011;53622;0.000;0.000;2023-12-20T05:53:40;1.80;;;1.70;;
66707;SDS011;53622;0.000;0.000;2023-12-20T05:56:08;1.90;;;1.80;;
66707;SDS011;53622;0.000;0.000;2023-12-20T05:58:38;2.10;;;1.98;;
66707;SDS011;53622;0.000;0.000;2023-12-20T06:01:07;2.03;;;1.90;;
66707;SDS011;53622;0.000;0.000;2023-12-20T06:03:36;2.40;;;2.15;;
66707;SDS011;53622;0.000;0.000;2023-12-20T06:06:07;2.03;;;1.88;;
66707;SDS011;53622;0.000;0.000;2023-12-20T06:08:42;2.13;;;1.92;;
66707;SDS011;53622;0.000;0.000;2023-12-20T06:11:11;2.10;;;1.90;;
66707;SDS011;53622;0.000;0.000;2023-12-20T06:13:40;2.10;;;1.90;;
66707;SDS011;53622;0.000;0.000;2023-12-20T06:16:09;2.40;;;2.15;;
66707;SDS011;53622;0.000;0.000;2023-12-20T06:18:38;2.38;;;2.17;;
66707;SDS011;53622;0.000;0.000;2023-12-20T06:21:08;1.70;;;1.60;;
66707;SDS011;53622;0.000;0.000;2023-12-20T06:23:39;1.77;;;1.67;;
66707;SDS011;53622;0.000;0.000;2023-12-20T06:26:08;2.10;;;1.90;;
66707;SDS011;53622;0.000;0.000;2023-12-20T06:28:37;2.30;;;1.70;;
66707;SDS011;53622;0.000;0.000;2023-12-20T06:31:08;1.92;;;1.75;;
66707;SDS011;53622;0.000;0.000;2023-12-20T06:33:37;2.42;;;2.22;;
66707;SDS011;53622;0.000;0.000;2023-12-20T06:36:10;1.95;;;1.75;;
66707;SDS011;53622;0.000;0.000;2023-12-20T06:38:39;2.03;;;1.70;;
66707;SDS011;53622;0.000;0.000;2023-12-20T06:41:12;3.15;;;1.98;;
66707;SDS011;53622;0.000;0.000;2023-12-20T06:43:42;5.40;;;1.85;;
66707;SDS011;53622;0.000;0.000;2023-12-20T06:46:16;9.13;;;2.08;;
66707;SDS011;53622;0.000;0.000;2023-12-20T06:48:45;5.05;;;2.00;;
66707;SDS011;53622;0.000;0.000;2023-12-20T06:51:16;4.68;;;1.70;;
66707;SDS011;53622;0.000;0.000;2023-12-20T06:53:46;2.55;;;1.77;;
66707;SDS011;53622;0.000;0.000;2023-12-20T06:56:15;2.00;;;1.23;;
66707;SDS011;53622;0.000;0.000;2023-12-20T06:58:46;3.88;;;1.50;;
66707;SDS011;53622;0.000;0.000;2023-12-20T07:01:15;6.88;;;2.20;;
66707;SDS011;53622;0.000;0.000;2023-12-20T07:03:44;9.63;;;1.90;;
66707;SDS011;53622;0.000;0.000;2023-12-20T07:06:13;3.40;;;1.70;;
66707;SDS011;53622;0.000;0.000;2023-12-20T07:08:44;3.25;;;1.83;;
66707;SDS011;53622;0.000;0.000;2023-12-20T07:11:12;17.42;;;2.05;;
66707;SDS011;53622;0.000;0.000;2023-12-20T07:13:41;3.00;;;1.63;;
66707;SDS011;53622;0.000;0.000;2023-12-20T07:16:10;2.40;;;1.48;;
66707;SDS011;53622;0.000;0.000;2023-12-20T07:18:40;4.57;;;1.80;;
66707;SDS011;53622;0.000;0.000;2023-12-20T07:21:09;7.00;;;1.63;;
66707;SDS011;53622;0.000;0.000;2023-12-20T07:23:39;3.75;;;1.80;;
66707;SDS011;53622;0.000;0.000;2023-12-20T07:26:08;4.10;;;1.67;;
66707;SDS011;53622;0.000;0.000;2023-12-20T07:28:38;2.80;;;1.58;;
66707;SDS011;53622;0.000;0.000;2023-12-20T07:31:07;3.40;;;1.60;;
66707;SDS011;53622;0.000;0.000;2023-12-20T07:33:36;2.47;;;1.75;;
66707;SDS011;53622;0.000;0.000;2023-12-20T07:36:06;3.10;;;1.67;;
66707;SDS011;53622;0.000;0.000;2023-12-20T07:38:35;4.57;;;1.90;;
66707;SDS011;53622;0.000;0.000;2023-12-20T07:41:06;4.22;;;1.65;;
66707;SDS011;53622;0.000;0.000;2023-12-20T07:43:37;4.65;;;1.50;;
66707;SDS011;53622;0.000;0.000;2023-12-20T07:46:06;2.78;;;1.50;;
66707;SDS011;53622;0.000;0.000;2023-12-20T07:48:35;2.92;;;1.58;;
66707;SDS011;53622;0.000;0.000;2023-12-20T07:51:04;1.63;;;1.50;;
66707;SDS011;53622;0.000;0.000;2023-12-20T07:53:34;3.40;;;1.60;;
66707;SDS011;53622;0.000;0.000;2023-12-20T07:56:14;2.58;;;1.75;;
66707;SDS011;53622;0.000;0.000;2023-12-20T07:58:43;2.55;;;1.80;;
66707;SDS011;53622;0.000;0.000;2023-12-20T08:01:19;2.90;;;1.60;;
66707;SDS011;53622;0.000;0.000;2023-12-20T08:03:49;2.20;;;1.60;;
66707;SDS011;53622;0.000;0.000;2023-12-20T08:06:18;1.83;;;1.58;;
66707;SDS011;53622;0.000;0.000;2023-12-20T08:11:46;2.00;;;1.77;;
66707;SDS011;53622;0.000;0.000;2023-12-20T08:14:14;3.78;;;1.73;;
66707;SDS011;53622;0.000;0.000;2023-12-20T08:16:43;2.08;;;1.70;;
66707;SDS011;53622;0.000;0.000;2023-12-20T08:19:12;2.60;;;1.45;;
66707;SDS011;53622;0.000;0.000;2023-12-20T08:21:41;2.47;;;1.58;;
66707;SDS011;53622;0.000;0.000;2023-12-20T08:24:09;1.30;;;1.20;;
66707;SDS011;53622;0.000;0.000;2023-12-20T08:26:38;2.72;;;1.50;;
66707;SDS011;53622;0.000;0.000;2023-12-20T08:29:08;1.58;;;1.45;;
66707;SDS011;53622;0.000;0.000;2023-12-20T08:31:36;1.52;;;1.40;;
66707;SDS011;53622;0.000;0.000;2023-12-20T08:34:05;1.73;;;1.30;;
66707;SDS011;53622;0.000;0.000;2023-12-20T08:36:35;2.15;;;1.48;;
66707;SDS011;53622;0.000;0.000;2023-12-20T08:39:04;1.55;;;1.45;;
66707;SDS011;53622;0.000;0.000;2023-12-20T08:41:34;2.47;;;1.50;;
66707;SDS011;53622;0.000;0.000;2023-12-20T08:44:04;1.55;;;1.45;;
66707;SDS011;53622;0.000;0.000;2023-12-20T08:46:34;2.00;;;1.30;;
66707;SDS011;53622;0.000;0.000;2023-12-20T08:49:03;1.52;;;1.35;;
66707;SDS011;53622;0.000;0.000;2023-12-20T08:51:32;1.40;;;1.30;;
66707;SDS011;53622;0.000;0.000;2023-12-20T08:54:01;1.20;;;1.10;;
66707;SDS011;53622;0.000;0.000;2023-12-20T08:56:34;2.58;;;1.38;;
66707;SDS011;53622;0.000;0.000;2023-12-20T08:59:03;2.20;;;1.38;;
66707;SDS011;53622;0.000;0.000;2023-12-20T09:01:31;1.42;;;1.30;;
66707;SDS011;53622;0.000;0.000;2023-12-20T09:04:02;1.20;;;1.10;;
66707;SDS011;53622;0.000;0.000;2023-12-20T09:06:31;1.10;;;1.00;;
66707;SDS011;53622;0.000;0.000;2023-12-20T09:09:00;1.10;;;1.05;;
66707;SDS011;53622;0.000;0.000;2023-12-20T09:11:29;4.43;;;2.20;;
66707;SDS011;53622;0.000;0.000;2023-12-20T09:13:58;2.25;;;1.73;;
66707;SDS011;53622;0.000;0.000;2023-12-20T09:16:27;5.03;;;1.42;;
66707;SDS011;53622;0.000;0.000;2023-12-20T09:18:57;1.73;;;1.40;;
66707;SDS011;53622;0.000;0.000;2023-12-20T09:21:26;1.98;;;1.30;;
66707;SDS011;53622;0.000;0.000;2023-12-20T09:23:55;2.80;;;1.33;;
66707;SDS011;53622;0.000;0.000;2023-12-20T09:26:23;5.60;;;1.70;;
66707;SDS011;53622;0.000;0.000;2023-12-20T09:28:52;1.75;;;1.42;;
66707;SDS011;53622;0.000;0.000;2023-12-20T09:31:21;1.83;;;1.38;;
66707;SDS011;53622;0.000;0.000;2023-12-20T09:33:50;3.53;;;1.50;;
66707;SDS011;53622;0.000;0.000;2023-12-20T09:36:20;2.08;;;1.25;;
66707;SDS011;53622;0.000;0.000;2023-12-20T09:38:49;2.53;;;1.20;;
66707;SDS011;53622;0.000;0.000;2023-12-20T09:41:18;1.35;;;1.25;;
66707;SDS011;53622;0.000;0.000;2023-12-20T09:43:47;1.20;;;1.10;;
66707;SDS011;53622;0.000;0.000;2023-12-20T09:46:19;0.98;;;0.90;;
66707;SDS011;53622;0.000;0.000;2023-12-20T09:48:52;1.48;;;1.17;;
66707;SDS011;53622;0.000;0.000;2023-12-20T09:51:23;2.15;;;1.15;;
66707;SDS011;53622;0.000;0.000;2023-12-20T09:53:53;1.48;;;1.38;;
66707;SDS011;53622;0.000;0.000;2023-12-20T09:56:24;1.17;;;1.08;;
66707;SDS011;53622;0.000;0.000;2023-12-20T09:58:53;3.10;;;1.20;;
66707;SDS011;53622;0.000;0.000;2023-12-20T10:01:22;1.45;;;1.08;;
66707;SDS011;53622;0.000;0.000;2023-12-20T10:03:52;1.33;;;1.10;;
66707;SDS011;53622;0.000;0.000;2023-12-20T10:06:24;1.42;;;1.30;;
66707;SDS011;53622;0.000;0.000;2023-12-20T10:08:53;1.33;;;1.20;;
66707;SDS011;53622;0.000;0.000;2023-12-20T10:11:21;1.75;;;1.00;;
66707;SDS011;53622;0.000;0.000;2023-12-20T10:13:50;1.00;;;1.00;;
66707;SDS011;53622;0.000;0.000;2023-12-20T10:16:19;0.95;;;0.95;;
66707;SDS011;53622;0.000;0.000;2023-12-20T10:18:53;2.15;;;1.05;;
66707;SDS011;53622;0.000;0.000;2023-12-20T10:21:22;0.88;;;0.85;;
66707;SDS011;53622;0.000;0.000;2023-12-20T10:23:53;1.13;;;1.00;;
66707;SDS011;53622;0.000;0.000;2023-12-20T10:26:23;1.10;;;1.00;;
66707;SDS011;53622;0.000;0.000;2023-12-20T10:28:52;1.30;;;0.98;;
66707;SDS011;53622;0.000;0.000;2023-12-20T10:31:26;2.15;;;0.90;;
66707;SDS011;53622;0.000;0.000;2023-12-20T10:33:56;1.10;;;1.00;;
66707;SDS011;53622;0.000;0.000;2023-12-20T10:36:28;2.08;;;0.90;;
66707;SDS011;53622;0.000;0.000;2023-12-20T10:38:58;2.17;;;0.95;;
66707;SDS011;53622;0.000;0.000;2023-12-20T10:41:29;1.00;;;0.85;;
66707;SDS011;53622;0.000;0.000;2023-12-20T10:44:00;2.25;;;1.00;;
66707;SDS011;53622;0.000;0.000;2023-12-20T10:46:30;1.70;;;0.90;;
66707;SDS011;53622;0.000;0.000;2023-12-20T10:48:59;1.10;;;1.00;;
66707;SDS011;53622;0.000;0.000;2023-12-20T10:51:32;1.42;;;0.90;;
66707;SDS011;53622;0.000;0.000;2023-12-20T10:54:03;0.77;;;0.77;;
66707;SDS011;53622;0.000;0.000;2023-12-20T10:56:32;2.13;;;0.80;;
66707;SDS011;53622;0.000;0.000;2023-12-20T10:59:02;1.05;;;0.90;;
66707;SDS011;53622;0.000;0.000;2023-12-20T11:01:33;2.17;;;0.93;;
66707;SDS011;53622;0.000;0.000;2023-12-20T11:04:03;1.20;;;1.08;;
66707;SDS011;53622;0.000;0.000;2023-12-20T11:06:40;2.30;;;0.90;;
66707;SDS011;53622;0.000;0.000;2023-12-20T11:09:17;1.27;;;0.70;;
66707;SDS011;53622;0.000;0.000;2023-12-20T11:11:56;0.85;;;0.85;;
66707;SDS011;53622;0.000;0.000;2023-12-20T11:14:34;1.05;;;0.93;;
66707;SDS011;53622;0.000;0.000;2023-12-20T11:17:10;1.30;;;0.80;;
66707;SDS011;53622;0.000;0.000;2023-12-20T11:19:43;1.55;;;1.10;;
66707;SDS011;53622;0.000;0.000;2023-12-20T11:22:35;2.92;;;1.08;;
66707;SDS011;53622;0.000;0.000;2023-12-20T11:25:08;1.33;;;0.70;;
66707;SDS011;53622;0.000;0.000;2023-12-20T11:27:40;1.10;;;0.82;;
66707;SDS011;53622;0.000;0.000;2023-12-20T11:30:13;1.17;;;0.80;;
66707;SDS011;53622;0.000;0.000;2023-12-20T11:32:44;0.88;;;0.88;;
66707;SDS011;53622;0.000;0.000;2023-12-20T11:35:18;0.75;;;0.75;;
66707;SDS011;53622;0.000;0.000;2023-12-20T11:37:49;0.75;;;0.57;;
66707;SDS011;53622;0.000;0.000;2023-12-20T11:40:19;1.58;;;0.80;;
66707;SDS011;53622;0.000;0.000;2023-12-20T11:42:49;0.90;;;0.60;;
66707;SDS011;53622;0.000;0.000;2023-12-20T11:45:21;0.80;;;0.80;;
66707;SDS011;53622;0.000;0.000;2023-12-20T11:47:56;1.10;;;0.80;;
66707;SDS011;53622;0.000;0.000;2023-12-20T11:50:25;1.00;;;0.80;;
66707;SDS011;53622;0.000;0.000;2023-12-20T11:52:56;0.75;;;0.70;;
66707;SDS011;53622;0.000;0.000;2023-12-20T11:55:25;1.92;;;0.90;;
66707;SDS011;53622;0.000;0.000;2023-12-20T11:57:54;0.75;;;0.73;;
66707;SDS011;53622;0.000;0.000;2023-12-20T12:00:24;0.70;;;0.70;;
66707;SDS011;53622;0.000;0.000;2023-12-20T12:02:56;0.68;;;0.60;;
66707;SDS011;53622;0.000;0.000;2023-12-20T12:05:25;1.73;;;0.77;;
66707;SDS011;53622;0.000;0.000;2023-12-20T12:07:54;0.70;;;0.70;;
66707;SDS011;53622;0.000;0.000;2023-12-20T12:10:24;0.77;;;0.77;;
66707;SDS011;53622;0.000;0.000;2023-12-20T12:12:53;0.90;;;0.70;;
66707;SDS011;53622;0.000;0.000;2023-12-20T12:15:22;0.75;;;0.73;;
66707;SDS011;53622;0.000;0.000;2023-12-20T12:17:54;0.70;;;0.63;;
66707;SDS011;53622;0.000;0.000;2023-12-20T12:20:23;0.70;;;0.68;;
66707;SDS011;53622;0.000;0.000;2023-12-20T12:23:00;0.65;;;0.65;;
66707;SDS011;53622;0.000;0.000;2023-12-20T12:25:31;2.55;;;0.82;;
66707;SDS011;53622;0.000;0.000;2023-12-20T12:28:03;1.17;;;0.80;;
66707;SDS011;53622;0.000;0.000;2023-12-20T12:30:34;1.65;;;0.88;;
66707;SDS011;53622;0.000;0.000;2023-12-20T12:33:12;3.03;;;0.88;;
66707;SDS011;53622;0.000;0.000;2023-12-20T12:35:40;2.35;;;0.88;;
66707;SDS011;53622;0.000;0.000;2023-12-20T12:38:11;1.90;;;1.10;;
66707;SDS011;53622;0.000;0.000;2023-12-20T12:40:40;2.33;;;1.05;;
66707;SDS011;53622;0.000;0.000;2023-12-20T12:43:11;2.45;;;0.90;;
66707;SDS011;53622;0.000;0.000;2023-12-20T12:45:40;1.58;;;1.10;;
66707;SDS011;53622;0.000;0.000;2023-12-20T12:48:10;1.40;;;0.90;;
66707;SDS011;53622;0.000;0.000;2023-12-20T12:50:38;2.63;;;0.90;;
66707;SDS011;53622;0.000;0.000;2023-12-20T12:53:07;2.85;;;1.10;;
66707;SDS011;53622;0.000;0.000;2023-12-20T12:55:37;2.83;;;0.82;;
66707;SDS011;53622;0.000;0.000;2023-12-20T12:58:05;1.45;;;0.73;;
66707;SDS011;53622;0.000;0.000;2023-12-20T13:00:34;1.65;;;1.00;;
66707;SDS011;53622;0.000;0.000;2023-12-20T13:03:03;3.42;;;0.90;;
66707;SDS011;53622;0.000;0.000;2023-12-20T13:05:32;2.50;;;1.40;;
66707;SDS011;53622;0.000;0.000;2023-12-20T13:08:06;1.23;;;0.80;;
66707;SDS011;53622;0.000;0.000;2023-12-20T13:10:37;1.25;;;0.80;;
66707;SDS011;53622;0.000;0.000;2023-12-20T13:13:06;2.63;;;0.70;;
66707;SDS011;53622;0.000;0.000;2023-12-20T13:15:35;1.67;;;0.90;;
66707;SDS011;53622;0.000;0.000;2023-12-20T13:18:04;1.63;;;0.57;;
66707;SDS011;53622;0.000;0.000;2023-12-20T13:20:34;1.88;;;0.60;;
66707;SDS011;53622;0.000;0.000;2023-12-20T13:23:02;1.23;;;0.70;;
66707;SDS011;53622;0.000;0.000;2023-12-20T13:25:31;2.25;;;0.65;;
66707;SDS011;53622;0.000;0.000;2023-12-20T13:28:01;1.48;;;0.75;;
66707;SDS011;53622;0.000;0.000;2023-12-20T13:30:31;0.80;;;0.75;;
66707;SDS011;53622;0.000;0.000;2023-12-20T13:33:00;3.75;;;1.17;;
66707;SDS011;53622;0.000;0.000;2023-12-20T13:35:28;1.40;;;0.65;;
66707;SDS011;53622;0.000;0.000;2023-12-20T13:37:58;0.65;;;0.57;;
66707;SDS011;53622;0.000;0.000;2023-12-20T13:40:26;0.82;;;0.65;;
66707;SDS011;53622;0.000;0.000;2023-12-20T13:42:55;0.85;;;0.60;;
66707;SDS011;53622;0.000;0.000;2023-12-20T13:45:25;0.80;;;0.60;;
66707;SDS011;53622;0.000;0.000;2023-12-20T13:47:54;0.60;;;0.60;;
66707;SDS011;53622;0.000;0.000;2023-12-20T13:50:23;0.93;;;0.70;;
66707;SDS011;53622;0.000;0.000;2023-12-20T13:52:53;1.30;;;0.60;;
66707;SDS011;53622;0.000;0.000;2023-12-20T13:55:21;2.05;;;0.63;;
66707;SDS011;53622;0.000;0.000;2023-12-20T13:57:52;1.20;;;0.70;;
66707;SDS011;53622;0.000;0.000;2023-12-20T14:00:22;0.45;;;0.45;;
66707;SDS011;53622;0.000;0.000;2023-12-20T14:02:52;2.78;;;0.70;;
66707;SDS011;53622;0.000;0.000;2023-12-20T14:05:21;1.80;;;0.80;;
66707;SDS011;53622;0.000;0.000;2023-12-20T14:07:55;4.38;;;0.70;;
66707;SDS011;53622;0.000;0.000;2023-12-20T14:10:25;1.73;;;0.57;;
66707;SDS011;53622;0.000;0.000;2023-12-20T14:12:54;1.17;;;0.60;;
66707;SDS011;53622;0.000;0.000;2023-12-20T14:15:23;8.20;;;0.90;;
66707;SDS011;53622;0.000;0.000;2023-12-20T14:17:54;11.52;;;1.15;;
66707;SDS011;53622;0.000;0.000;2023-12-20T14:20:23;7.82;;;0.98;;
66707;SDS011;53622;0.000;0.000;2023-12-20T14:22:53;7.07;;;1.10;;
66707;SDS011;53622;0.000;0.000;2023-12-20T14:25:22;6.22;;;1.00;;
66707;SDS011;53622;0.000;0.000;2023-12-20T14:27:51;10.88;;;1.05;;
66707;SDS011;53622;0.000;0.000;2023-12-20T14:30:20;5.80;;;1.10;;
66707;SDS011;53622;0.000;0.000;2023-12-20T14:32:48;4.90;;;1.00;;
66707;SDS011;53622;0.000;0.000;2023-12-20T14:35:19;2.33;;;0.90;;
66707;SDS011;53622;0.000;0.000;2023-12-20T14:37:47;5.03;;;1.15;;
66707;SDS011;53622;0.000;0.000;2023-12-20T14:40:17;3.13;;;1.00;;
66707;SDS011;53622;0.000;0.000;2023-12-20T14:42:45;6.28;;;1.00;;
66707;SDS011;53622;0.000;0.000;2023-12-20T14:45:15;4.93;;;1.10;;
66707;SDS011;53622;0.000;0.000;2023-12-20T14:47:44;4.63;;;0.85;;
66707;SDS011;53622;0.000;0.000;2023-12-20T14:50:15;1.85;;;1.00;;
66707;SDS011;53622;0.000;0.000;2023-12-20T14:52:47;3.13;;;0.90;;
66707;SDS011;53622;0.000;0.000;2023-12-20T14:55:16;12.70;;;1.67;;
66707;SDS011;53622;0.000;0.000;2023-12-20T14:57:45;18.50;;;2.00;;
66707;SDS011;53622;0.000;0.000;2023-12-20T15:00:16;12.05;;;1.50;;
66707;SDS011;53622;0.000;0.000;2023-12-20T15:02:46;46.50;;;3.58;;
66707;SDS011;53622;0.000;0.000;2023-12-20T15:05:15;22.02;;;2.33;;
66707;SDS011;53622;0.000;0.000;2023-12-20T15:07:44;25.88;;;2.30;;
66707;SDS011;53622;0.000;0.000;2023-12-20T15:10:15;34.42;;;3.45;;
66707;SDS011;53622;0.000;0.000;2023-12-20T15:12:45;32.67;;;2.90;;
66707;SDS011;53622;0.000;0.000;2023-12-20T15:15:14;30.00;;;2.63;;
66707;SDS011;53622;0.000;0.000;2023-12-20T15:18:17;19.70;;;2.15;;